createdAt,value
2022-09-14T00:01:49.041Z,26.25
2022-09-14T00:04:20.511Z,24.50
2022-09-14T00:06:49.969Z,25.00
2022-09-14T00:09:21.828Z,21.25
2022-09-14T00:11:51.751Z,18.00
2022-09-14T00:14:21.591Z,17.25
2022-09-14T00:16:52.252Z,17.00
2022-09-14T00:19:28.260Z,19.00
2022-09-14T00:22:01.067Z,15.75
2022-09-14T00:24:35.302Z,13.25
2022-09-14T00:27:04.674Z,15.25
2022-09-14T00:29:33.703Z,14.25
2022-09-14T00:32:03.295Z,15.50
2022-09-14T00:34:32.811Z,13.75
2022-09-14T00:37:01.857Z,17.50
2022-09-14T00:39:30.844Z,18.50
2022-09-14T00:41:59.828Z,16.50
2022-09-14T00:44:31.717Z,15.25
2022-09-14T00:47:03.951Z,15.75
2022-09-14T00:49:38.606Z,17.00
2022-09-14T00:52:26.200Z,15.00
2022-09-14T00:55:00.844Z,12.50
2022-09-14T00:57:33.053Z,13.00
2022-09-14T01:00:02.421Z,12.75
2022-09-14T01:02:31.954Z,11.50
2022-09-14T01:05:01.163Z,16.25
2022-09-14T01:07:36.005Z,35.25
2022-09-14T01:10:07.926Z,20.75
2022-09-14T01:13:01.119Z,15.75
2022-09-14T01:15:32.961Z,16.00
2022-09-14T01:18:08.544Z,16.25
2022-09-14T01:20:40.400Z,16.75
2022-09-14T01:23:27.065Z,14.00
2022-09-14T01:26:07.532Z,13.50
2022-09-14T01:28:58.689Z,13.00
2022-09-14T01:31:51.448Z,15.00
2022-09-14T01:34:44.395Z,13.25
2022-09-14T01:37:16.290Z,10.25
2022-09-14T01:39:54.359Z,14.75
2022-09-14T01:42:26.372Z,12.25
2022-09-14T01:45:01.277Z,13.25
2022-09-14T01:47:33.116Z,11.50
2022-09-14T01:50:05.773Z,9.50
2022-09-14T01:52:46.395Z,8.75
2022-09-14T01:55:18.256Z,10.00
2022-09-14T01:57:55.742Z,35.25
2022-09-14T02:00:24.811Z,15.25
2022-09-14T02:03:05.728Z,21.75
2022-09-14T02:05:40.711Z,10.00
2022-09-14T02:08:10.086Z,9.50
2022-09-14T02:10:39.239Z,10.25
2022-09-14T02:13:09.760Z,12.75
2022-09-14T02:15:40.104Z,14.00
2022-09-14T02:18:09.050Z,9.50
2022-09-14T02:21:02.690Z,7.50
2022-09-14T02:23:32.007Z,13.75
2022-09-14T02:26:01.053Z,14.25
2022-09-14T02:28:30.627Z,14.25
2022-09-14T02:31:05.567Z,12.50
2022-09-14T02:34:00.221Z,12.25
2022-09-14T02:36:44.335Z,11.00
2022-09-14T02:39:30.956Z,9.00
2022-09-14T02:42:05.237Z,10.00
2022-09-14T02:44:48.979Z,7.75
2022-09-14T02:47:23.661Z,3.00
2022-09-14T02:50:23.138Z,6.75
2022-09-14T02:52:54.969Z,6.50
2022-09-14T02:55:26.820Z,4.25
2022-09-14T02:58:04.023Z,6.00
2022-09-14T03:00:36.864Z,6.00
2022-09-14T03:03:07.941Z,5.00
2022-09-14T03:05:37.467Z,6.25
2022-09-14T03:08:06.672Z,5.25
2022-09-14T03:10:35.771Z,3.75
2022-09-14T03:13:04.910Z,7.75
2022-09-14T03:15:34.314Z,10.25
2022-09-14T03:18:03.387Z,4.25
2022-09-14T03:20:34.334Z,4.75
2022-09-14T03:23:05.160Z,5.75
2022-09-14T03:25:37.266Z,4.00
2022-09-14T03:28:07.007Z,2.50
2022-09-14T03:30:36.451Z,4.25
2022-09-14T03:33:05.649Z,2.25
2022-09-14T03:35:35.800Z,2.75
2022-09-14T03:38:04.782Z,3.00
2022-09-14T03:40:34.200Z,5.00
2022-09-14T03:43:03.261Z,3.75
2022-09-14T03:45:32.279Z,3.75
2022-09-14T03:48:01.288Z,3.50
2022-09-14T03:50:30.277Z,6.00
2022-09-14T03:52:59.815Z,6.50
2022-09-14T03:55:28.822Z,7.25
2022-09-14T03:57:58.060Z,7.50
2022-09-14T04:00:26.995Z,10.25
2022-09-14T04:02:56.182Z,7.75
2022-09-14T04:05:25.413Z,9.50
2022-09-14T04:07:54.439Z,7.75
2022-09-14T04:10:23.438Z,7.25
2022-09-14T04:12:52.414Z,9.00
2022-09-14T04:15:21.383Z,8.00
2022-09-14T04:17:51.487Z,9.25
2022-09-14T04:20:20.850Z,7.00
2022-09-14T04:22:49.809Z,12.50
2022-09-14T04:25:19.068Z,9.50
2022-09-14T04:27:58.951Z,7.75
2022-09-14T04:30:18.817Z,9.50
2022-09-14T04:32:47.864Z,9.00
2022-09-14T04:35:17.195Z,10.00
2022-09-14T04:37:46.239Z,10.00
2022-09-14T04:40:15.612Z,8.50
2022-09-14T04:42:44.657Z,7.25
2022-09-14T04:45:13.695Z,7.50
2022-09-14T04:47:42.720Z,7.50
2022-09-14T04:50:11.894Z,4.00
2022-09-14T04:52:40.978Z,10.75
2022-09-14T04:55:10.608Z,10.75
2022-09-14T04:57:39.578Z,11.50
2022-09-14T05:00:09.810Z,15.00
2022-09-14T05:02:41.522Z,15.25
2022-09-14T05:05:10.899Z,11.75
2022-09-14T05:07:39.951Z,18.00
2022-09-14T05:10:09.502Z,28.50
2022-09-14T05:12:38.545Z,43.00
2022-09-14T05:15:08.494Z,64.25
2022-09-14T05:17:37.496Z,59.25
2022-09-14T05:20:07.131Z,32.75
2022-09-14T05:22:36.154Z,14.25
2022-09-14T05:25:05.655Z,15.00
2022-09-14T05:27:34.528Z,9.00
2022-09-14T05:30:03.580Z,6.00
2022-09-14T05:32:32.544Z,3.25
2022-09-14T05:35:01.571Z,6.00
2022-09-14T05:37:30.584Z,16.25
2022-09-14T05:39:59.611Z,25.50
2022-09-14T05:42:28.634Z,24.50
2022-09-14T05:44:57.697Z,22.25
2022-09-14T05:47:26.654Z,23.00
2022-09-14T05:49:55.696Z,27.50
2022-09-14T05:52:25.256Z,29.00
2022-09-14T05:54:54.355Z,35.25
2022-09-14T05:57:23.454Z,37.00
2022-09-14T05:59:52.419Z,35.50
2022-09-14T06:02:21.605Z,31.00
2022-09-14T06:04:50.704Z,25.50
2022-09-14T06:07:19.774Z,18.00
2022-09-14T06:09:48.805Z,17.50
2022-09-14T06:12:18.099Z,21.25
2022-09-14T06:14:46.999Z,27.25
2022-09-14T06:17:16.008Z,19.00
2022-09-14T06:19:44.984Z,21.00
2022-09-14T06:22:14.022Z,22.50
2022-09-14T06:24:43.169Z,28.25
2022-09-14T06:27:12.806Z,27.75
2022-09-14T06:29:42.020Z,29.75
2022-09-14T06:32:11.048Z,28.00
2022-09-14T06:34:40.020Z,15.50
2022-09-14T06:37:09.034Z,7.00
2022-09-14T06:39:38.366Z,5.50
2022-09-14T06:42:07.525Z,6.50
2022-09-14T06:44:36.510Z,6.75
2022-09-14T06:47:05.835Z,6.75
2022-09-14T06:49:35.127Z,12.00
2022-09-14T06:52:04.230Z,7.75
2022-09-14T06:54:33.701Z,10.25
2022-09-14T06:57:02.704Z,10.25
2022-09-14T06:59:31.817Z,10.00
2022-09-14T07:02:00.923Z,11.00
2022-09-14T07:04:30.309Z,11.25
2022-09-14T07:06:59.466Z,10.50
2022-09-14T07:09:28.607Z,7.25
2022-09-14T07:11:57.678Z,9.00
2022-09-14T07:14:30.341Z,9.25
2022-09-14T07:16:57.382Z,5.80
2022-09-14T07:19:26.414Z,7.60
2022-09-14T07:21:55.422Z,8.25
2022-09-14T07:24:24.473Z,7.00
2022-09-14T07:26:53.487Z,4.80
2022-09-14T07:29:22.915Z,7.25
2022-09-14T07:31:55.615Z,6.50
2022-09-14T07:34:25.649Z,1.00
2022-09-14T07:36:54.638Z,7.00
2022-09-14T07:39:23.735Z,8.80
2022-09-14T07:41:52.700Z,6.40
2022-09-14T07:44:21.681Z,7.80
2022-09-14T07:46:50.686Z,7.60
2022-09-14T07:49:19.820Z,7.20
2022-09-14T07:51:49.260Z,6.80
2022-09-14T07:54:20.092Z,7.20
2022-09-14T07:56:50.394Z,6.40
2022-09-14T07:59:36.563Z,6.20
2022-09-14T08:01:50.482Z,8.80
2022-09-14T08:04:19.693Z,6.60
2022-09-14T08:06:48.771Z,5.40
2022-09-14T08:09:17.906Z,6.40
2022-09-14T08:11:46.859Z,7.40
2022-09-14T08:14:15.941Z,8.80
2022-09-14T08:16:45.020Z,8.00
2022-09-14T08:19:17.361Z,6.60
2022-09-14T08:21:47.723Z,9.60
2022-09-14T08:24:20.233Z,8.00
2022-09-14T08:26:50.579Z,7.20
2022-09-14T08:29:20.985Z,5.00
2022-09-14T08:31:52.237Z,7.00
2022-09-14T08:34:21.924Z,8.20
2022-09-14T08:36:51.504Z,7.40
2022-09-14T08:39:21.093Z,7.80
2022-09-14T08:41:56.028Z,5.40
2022-09-14T08:44:57.003Z,10.00
2022-09-14T08:47:40.157Z,6.60
2022-09-14T08:50:18.486Z,7.80
2022-09-14T08:52:55.661Z,4.20
2022-09-14T08:55:36.581Z,10.20
2022-09-14T08:58:20.826Z,7.00
2022-09-14T09:01:19.084Z,7.00
2022-09-14T09:03:56.921Z,7.00
2022-09-14T09:06:48.466Z,2.00
2022-09-14T09:09:32.601Z,5.40
2022-09-14T09:12:02.263Z,7.60
2022-09-14T09:14:40.314Z,10.00
2022-09-14T09:17:21.173Z,7.40
2022-09-14T09:20:12.339Z,7.00
2022-09-14T09:23:02.350Z,6.20
2022-09-14T09:25:34.193Z,5.00
2022-09-14T09:28:06.052Z,5.40
2022-09-14T09:30:35.068Z,5.80
2022-09-14T09:33:04.792Z,4.40
2022-09-14T09:35:34.732Z,5.80
2022-09-14T09:38:03.732Z,5.80
2022-09-14T09:40:43.308Z,7.00
2022-09-14T09:43:28.719Z,5.00
2022-09-14T09:46:08.693Z,4.00
2022-09-14T09:48:43.562Z,7.40
2022-09-14T09:51:24.055Z,2.40
2022-09-14T09:54:01.038Z,5.00
2022-09-14T09:56:33.125Z,4.20
2022-09-14T09:59:02.315Z,5.80
2022-09-14T10:01:34.692Z,6.20
2022-09-14T10:04:18.329Z,4.00
2022-09-14T10:06:50.068Z,4.40
2022-09-14T10:09:30.099Z,4.20
2022-09-14T10:12:04.656Z,4.00
2022-09-14T10:14:40.685Z,4.20
2022-09-14T10:17:21.506Z,4.20
2022-09-14T10:19:53.352Z,2.40
2022-09-14T10:22:31.559Z,4.20
2022-09-14T10:25:02.843Z,5.80
2022-09-14T10:27:40.475Z,6.60
2022-09-14T10:30:18.766Z,5.80
2022-09-14T10:32:59.886Z,4.40
2022-09-14T10:35:52.887Z,1.00
2022-09-14T10:38:51.732Z,2.80
2022-09-14T10:41:43.819Z,6.00
2022-09-14T10:44:32.407Z,2.00
2022-09-14T10:47:13.276Z,6.20
2022-09-14T10:50:05.428Z,5.00
2022-09-14T10:52:39.881Z,6.60
2022-09-14T10:55:17.699Z,5.80
2022-09-14T10:57:49.628Z,7.00
2022-09-14T11:00:21.768Z,6.60
2022-09-14T11:03:02.862Z,4.80
2022-09-14T11:05:40.670Z,4.40
2022-09-14T11:08:15.414Z,4.80
2022-09-14T11:11:11.203Z,5.00
2022-09-14T11:13:46.156Z,5.00
2022-09-14T11:16:27.198Z,7.00
2022-09-14T11:19:34.123Z,5.00
2022-09-14T11:22:08.711Z,5.00
2022-09-14T11:24:46.526Z,7.20
2022-09-14T11:27:37.670Z,5.40
2022-09-14T11:30:18.439Z,7.20
2022-09-14T11:32:56.109Z,8.40
2022-09-14T11:35:30.671Z,7.00
2022-09-14T11:38:02.530Z,5.00
2022-09-14T11:40:40.220Z,7.00
2022-09-14T11:43:15.144Z,5.00
2022-09-14T11:45:55.546Z,4.00
2022-09-14T11:48:45.402Z,7.20
2022-09-14T11:51:13.026Z,7.60
2022-09-14T11:53:44.863Z,8.80
2022-09-14T11:56:29.216Z,2.00
2022-09-14T11:59:00.957Z,6.60
2022-09-14T12:01:33.252Z,6.00
2022-09-14T12:04:10.962Z,4.80
2022-09-14T12:06:42.995Z,6.00
2022-09-14T12:09:25.308Z,6.20
2022-09-14T12:11:58.606Z,7.60
2022-09-14T12:14:30.547Z,7.00
2022-09-14T12:17:40.779Z,1.00
2022-09-14T12:19:57.766Z,4.00
2022-09-14T12:22:35.603Z,6.60
2022-09-14T12:25:13.670Z,6.80
2022-09-14T12:27:45.235Z,7.60
2022-09-14T12:30:43.080Z,5.00
2022-09-14T12:33:35.677Z,6.80
2022-09-14T12:36:22.531Z,7.80
2022-09-14T12:38:54.374Z,6.80
2022-09-14T12:41:26.226Z,8.00
2022-09-14T12:43:58.633Z,5.00
2022-09-14T12:46:36.914Z,5.00
2022-09-14T12:49:17.831Z,6.00
2022-09-14T12:51:51.907Z,5.00
2022-09-14T12:54:26.285Z,4.80
2022-09-14T12:57:10.372Z,6.20
2022-09-14T12:59:54.170Z,6.20
2022-09-14T13:02:48.590Z,4.00
2022-09-14T13:05:24.042Z,6.00
2022-09-14T13:07:54.703Z,5.40
2022-09-14T13:10:41.620Z,5.40
2022-09-14T13:13:22.354Z,5.40
2022-09-14T13:16:03.471Z,7.60
2022-09-14T13:18:37.646Z,4.80
2022-09-14T13:21:25.135Z,6.40
2022-09-14T13:23:54.152Z,4.40
2022-09-14T13:26:26.102Z,4.60
2022-09-14T13:28:57.587Z,5.40
2022-09-14T13:31:35.585Z,2.80
2022-09-14T13:34:05.797Z,2.60
2022-09-14T13:36:37.691Z,5.80
2022-09-14T13:39:08.278Z,4.80
2022-09-14T13:41:40.199Z,7.80
2022-09-14T13:44:09.254Z,6.00
2022-09-14T13:46:38.283Z,4.40
2022-09-14T13:49:09.043Z,5.00
2022-09-14T13:51:38.011Z,1.60
2022-09-14T13:54:27.772Z,5.00
2022-09-14T13:57:18.237Z,4.00
2022-09-14T14:00:20.342Z,4.60
2022-09-14T14:02:54.700Z,5.40
2022-09-14T14:05:29.767Z,6.40
2022-09-14T14:08:01.287Z,6.20
2022-09-14T14:10:39.154Z,5.00
2022-09-14T14:13:08.133Z,5.00
2022-09-14T14:15:43.063Z,5.00
2022-09-14T14:18:34.487Z,4.60
2022-09-14T14:21:25.732Z,7.00
2022-09-14T14:24:12.601Z,5.60
2022-09-14T14:26:28.988Z,5.00
2022-09-14T14:29:00.889Z,6.80
2022-09-14T14:31:29.970Z,7.20
2022-09-14T14:33:59.418Z,6.60
2022-09-14T14:36:28.583Z,5.40
2022-09-14T14:38:58.761Z,4.60
2022-09-14T14:41:26.659Z,4.00
2022-09-14T14:43:54.633Z,7.20
2022-09-14T14:46:25.357Z,5.00
2022-09-14T14:48:54.409Z,6.20
2022-09-14T14:51:23.464Z,5.00
2022-09-14T14:53:52.657Z,7.80
2022-09-14T14:56:21.729Z,5.00
2022-09-14T14:58:51.016Z,7.80
2022-09-14T15:01:20.232Z,4.80
2022-09-14T15:03:49.685Z,7.00
2022-09-14T15:06:24.155Z,7.40
2022-09-14T15:08:57.396Z,7.00
2022-09-14T15:11:27.489Z,6.20
2022-09-14T15:13:56.495Z,8.00
2022-09-14T15:16:25.616Z,7.60
2022-09-14T15:18:54.692Z,7.00
2022-09-14T15:21:24.015Z,7.80
2022-09-14T15:23:53.052Z,6.60
2022-09-14T15:26:22.016Z,8.00
2022-09-14T15:28:51.888Z,7.60
2022-09-14T15:31:21.213Z,7.20
2022-09-14T15:33:50.567Z,8.40
2022-09-14T15:36:47.752Z,10.60
2022-09-14T15:39:17.092Z,8.20
2022-09-14T15:41:46.174Z,6.20
2022-09-14T15:44:15.874Z,9.40
2022-09-14T15:46:47.086Z,7.80
2022-09-14T15:49:21.161Z,7.20
2022-09-14T15:51:52.613Z,10.80
2022-09-14T15:54:26.493Z,13.00
2022-09-14T15:57:00.883Z,13.80
2022-09-14T15:59:30.492Z,7.00
2022-09-14T16:01:59.591Z,10.20
2022-09-14T16:04:28.932Z,10.00
2022-09-14T16:06:57.994Z,8.80
2022-09-14T16:09:27.081Z,10.40
2022-09-14T16:12:00.906Z,5.00
2022-09-14T16:14:27.002Z,5.80
2022-09-14T16:16:56.163Z,7.60
2022-09-14T16:19:25.658Z,9.20
2022-09-14T16:21:54.705Z,7.20
2022-09-14T16:24:25.503Z,6.20
2022-09-14T16:26:55.560Z,7.20
2022-09-14T16:29:24.808Z,8.00
2022-09-14T16:31:54.271Z,7.60
2022-09-14T16:34:28.939Z,7.80
2022-09-14T16:36:58.931Z,10.00
2022-09-14T16:39:34.525Z,10.40
2022-09-14T16:42:04.087Z,10.00
2022-09-14T16:44:33.294Z,10.80
2022-09-14T16:47:02.325Z,11.00
2022-09-14T16:49:31.410Z,11.00
2022-09-14T16:52:03.325Z,9.60
2022-09-14T16:54:32.461Z,11.00
2022-09-14T16:57:01.494Z,9.20
2022-09-14T16:59:30.592Z,8.00
2022-09-14T17:02:00.050Z,7.80
2022-09-14T17:04:29.164Z,7.80
2022-09-14T17:06:58.408Z,7.80
2022-09-14T17:09:29.534Z,10.20
2022-09-14T17:11:59.386Z,8.80
2022-09-14T17:14:31.604Z,7.80
2022-09-14T17:17:01.786Z,9.20
2022-09-14T17:19:31.112Z,8.00
2022-09-14T17:22:01.083Z,7.80
2022-09-14T17:24:30.107Z,47.00
2022-09-14T17:26:59.016Z,7.00
2022-09-14T17:29:28.871Z,8.40
2022-09-14T17:31:58.390Z,9.60
2022-09-14T17:34:27.532Z,7.60
2022-09-14T17:36:56.639Z,7.80
2022-09-14T17:39:26.280Z,1.80
2022-09-14T17:41:55.316Z,5.80
2022-09-14T17:44:26.045Z,5.00
2022-09-14T17:46:55.160Z,6.20
2022-09-14T17:49:25.085Z,0.00
2022-09-14T17:51:54.069Z,5.80
2022-09-14T17:54:23.368Z,7.00
2022-09-14T17:56:52.803Z,9.80
2022-09-14T17:59:22.549Z,7.00
2022-09-14T18:01:51.925Z,7.00
2022-09-14T18:04:21.040Z,7.00
2022-09-14T18:06:50.619Z,7.00
2022-09-14T18:09:22.334Z,6.20
2022-09-14T18:11:52.298Z,7.00
2022-09-14T18:14:21.564Z,7.00
2022-09-14T18:16:50.938Z,7.20
2022-09-14T18:19:19.921Z,7.00
2022-09-14T18:21:52.410Z,6.80
2022-09-14T18:24:20.430Z,7.80
2022-09-14T18:26:49.619Z,7.20
2022-09-14T18:29:21.450Z,7.00
2022-09-14T18:31:51.845Z,9.80
2022-09-14T18:34:22.041Z,5.00
2022-09-14T18:36:52.832Z,6.40
2022-09-14T18:39:21.933Z,7.80
2022-09-14T18:41:54.629Z,3.40
2022-09-14T18:44:24.712Z,8.20
2022-09-14T18:46:54.128Z,7.60
2022-09-14T18:49:23.280Z,8.00
2022-09-14T18:51:52.542Z,7.00
2022-09-14T18:54:27.315Z,5.80
2022-09-14T18:56:52.649Z,5.60
2022-09-14T18:59:21.836Z,5.80
2022-09-14T19:01:50.916Z,5.80
2022-09-14T19:04:20.218Z,6.60
2022-09-14T19:06:49.367Z,9.20
2022-09-14T19:09:18.426Z,7.00
2022-09-14T19:11:47.533Z,6.60
2022-09-14T19:14:17.709Z,6.40
2022-09-14T19:16:46.762Z,5.40
2022-09-14T19:19:17.434Z,4.40
2022-09-14T19:21:46.671Z,5.00
2022-09-14T19:24:18.075Z,3.60
2022-09-14T19:26:49.661Z,5.60
2022-09-14T19:29:22.093Z,7.20
2022-09-14T19:31:52.255Z,6.40
2022-09-14T19:34:22.878Z,1.00
2022-09-14T19:36:53.847Z,5.80
2022-09-14T19:39:24.682Z,6.00
2022-09-14T19:41:54.162Z,7.40
2022-09-14T19:44:23.468Z,7.60
2022-09-14T19:46:52.859Z,6.00
2022-09-14T19:49:24.599Z,6.40
2022-09-14T19:51:54.489Z,5.80
2022-09-14T19:54:23.529Z,7.00
2022-09-14T19:56:52.530Z,6.60
2022-09-14T19:59:21.924Z,6.00
2022-09-14T20:01:51.367Z,3.00
2022-09-14T20:04:20.507Z,5.00
2022-09-14T20:06:49.587Z,6.00
2022-09-14T20:09:21.687Z,6.60
2022-09-14T20:11:52.805Z,3.00
2022-09-14T20:14:24.102Z,4.80
2022-09-14T20:16:56.291Z,1.00
2022-09-14T20:19:28.067Z,4.80
2022-09-14T20:21:57.371Z,4.40
2022-09-14T20:24:30.873Z,3.00
2022-09-14T20:27:02.445Z,2.60
2022-09-14T20:29:34.293Z,3.80
2022-09-14T20:32:05.622Z,6.00
2022-09-14T20:34:34.869Z,5.20
2022-09-14T20:37:03.943Z,5.80
2022-09-14T20:39:34.729Z,3.00
2022-09-14T20:42:03.935Z,3.40
2022-09-14T20:44:33.369Z,5.00
2022-09-14T20:47:02.428Z,3.00
2022-09-14T20:49:31.674Z,3.00
2022-09-14T20:52:02.341Z,5.00
2022-09-14T20:54:31.441Z,5.00
2022-09-14T20:59:31.141Z,3.20
2022-09-14T21:02:04.647Z,4.60
2022-09-14T21:04:30.769Z,4.00
2022-09-14T21:06:59.759Z,2.00
2022-09-14T21:09:29.829Z,3.00
2022-09-14T21:11:13.204Z,2.20
2022-09-14T21:11:58.940Z,3.00
2022-09-14T21:14:28.914Z,3.00
2022-09-14T21:16:58.943Z,4.20
2022-09-14T21:19:29.512Z,1.00
2022-09-14T21:21:58.464Z,5.20
2022-09-14T21:24:27.706Z,3.20
2022-09-14T21:26:57.726Z,5.00
2022-09-14T21:29:26.765Z,1.00
2022-09-14T21:31:56.166Z,3.00
2022-09-14T21:34:25.234Z,3.00
2022-09-14T21:36:54.692Z,3.60
2022-09-14T21:39:25.782Z,4.60
2022-09-14T21:41:59.170Z,2.80
2022-09-14T21:44:35.342Z,4.80
2022-09-14T21:47:05.789Z,5.00
2022-09-14T21:49:34.997Z,4.00
2022-09-14T21:52:04.264Z,2.40
2022-09-14T21:54:33.744Z,5.60
2022-09-14T21:57:02.751Z,3.00
2022-09-14T21:59:31.815Z,3.40
2022-09-14T22:02:01.350Z,1.00
2022-09-14T22:04:30.427Z,5.80
2022-09-14T22:06:59.502Z,3.00
2022-09-14T22:09:30.198Z,4.20
2022-09-14T22:11:59.319Z,5.00
2022-09-14T22:14:30.414Z,3.00
2022-09-14T22:16:59.470Z,2.20
2022-09-14T22:19:33.105Z,4.60
2022-09-14T22:22:04.011Z,5.00
2022-09-14T22:24:38.086Z,4.60
2022-09-14T22:27:09.117Z,5.80
2022-09-14T22:29:40.825Z,4.80
2022-09-14T22:32:12.158Z,3.40
2022-09-14T22:34:49.500Z,2.20
2022-09-14T22:37:16.974Z,4.20
2022-09-14T22:39:47.121Z,3.80
2022-09-14T22:42:16.279Z,5.50
2022-09-14T22:44:45.355Z,4.20
2022-09-14T22:47:14.900Z,4.60
2022-09-14T22:49:43.967Z,4.20
2022-09-14T22:52:13.514Z,4.60
2022-09-14T22:54:42.623Z,3.80
2022-09-14T22:57:11.825Z,3.00
2022-09-14T22:59:40.823Z,3.00
2022-09-14T23:02:09.887Z,3.00
2022-09-14T23:04:38.923Z,5.40
2022-09-14T23:07:08.439Z,0.00
2022-09-14T23:09:37.686Z,3.00
2022-09-14T23:12:06.708Z,2.20
2022-09-14T23:14:35.675Z,3.00
2022-09-14T23:17:04.752Z,5.60
2022-09-14T23:19:33.978Z,4.80
2022-09-14T23:22:03.217Z,1.40
2022-09-14T23:24:32.200Z,5.00
2022-09-14T23:27:01.400Z,4.40
2022-09-14T23:29:30.396Z,3.40
2022-09-14T23:31:59.387Z,3.60
2022-09-14T23:34:28.559Z,4.80
2022-09-14T23:36:57.720Z,3.00
2022-09-14T23:39:26.861Z,3.00
2022-09-14T23:41:56.012Z,3.20
2022-09-14T23:44:25.198Z,3.40
2022-09-14T23:46:54.390Z,2.00
2022-09-14T23:49:23.291Z,3.80
2022-09-14T23:51:52.372Z,3.60
2022-09-14T23:54:21.690Z,4.00
2022-09-14T23:56:50.879Z,3.20
2022-09-14T23:59:19.843Z,4.00
